Time;durP1;ratioP1;P1;durP2;ratioP2;P2;SDS_P1;SDS_P2;PMS_P1;PMS_P2;Temp;Humidity;BMP_temperature;BMP_pressure;BME280_temperature;BME280_humidity;BME280_pressure;Samples;Min_cycle;Max_cycle;Signal;HPM_P1;HPM_P2
2023/05/19 00:00:00;;;;;;;4.82;4.10;;;;;;;11.08;100.00;63142.94;5045371;28;20533;-77
2023/05/19 00:02:32;;;;;;;4.53;4.15;;;;;;;11.07;100.00;63139.84;5045285;28;20280;-75
2023/05/19 00:05:01;;;;;;;4.45;4.10;;;;;;;11.06;100.00;63138.31;5043757;28;20244;-77
2023/05/19 00:07:31;;;;;;;4.80;4.40;;;;;;;10.97;100.00;63129.50;5044374;28;20571;-76
2023/05/19 00:09:59;;;;;;;4.45;3.90;;;;;;;10.99;100.00;63138.69;5044776;28;20198;-76
2023/05/19 00:12:28;;;;;;;4.45;4.05;;;;;;;10.98;100.00;63127.47;5045777;28;20260;-76
2023/05/19 00:14:55;;;;;;;3.83;3.63;;;;;;;10.98;100.00;63130.53;5045437;28;20214;-76
2023/05/19 00:17:23;;;;;;;5.43;4.38;;;;;;;10.96;100.00;63128.47;5044448;28;20228;-76
2023/05/19 00:19:51;;;;;;;5.15;4.65;;;;;;;10.93;100.00;63119.75;5044701;28;20244;-77
2023/05/19 00:22:18;;;;;;;4.70;4.30;;;;;;;10.94;100.00;63128.94;5044510;28;20221;-77
2023/05/19 00:24:45;;;;;;;4.93;4.43;;;;;;;10.92;100.00;63124.34;5045491;28;20233;-76
2023/05/19 00:27:12;;;;;;;5.13;4.70;;;;;;;10.90;100.00;63121.72;5044870;28;20470;-76
2023/05/19 00:29:42;;;;;;;5.40;4.38;;;;;;;10.84;100.00;63115.50;5045047;28;20239;-77
2023/05/19 00:32:09;;;;;;;11.05;4.65;;;;;;;10.74;100.00;63105.69;5044853;28;20277;-76
2023/05/19 00:34:36;;;;;;;4.40;4.10;;;;;;;10.76;100.00;63107.75;5044557;28;20244;-77
2023/05/19 00:37:03;;;;;;;6.07;4.22;;;;;;;10.81;100.00;63115.47;5044329;28;20248;-76
2023/05/19 00:39:30;;;;;;;5.35;4.90;;;;;;;10.80;100.00;63111.38;5044790;28;20240;-75
2023/05/19 00:41:57;;;;;;;4.40;4.00;;;;;;;10.73;100.00;63102.13;5044565;28;20554;-76
2023/05/19 00:44:25;;;;;;;6.32;4.80;;;;;;;10.81;100.00;63114.97;5044606;28;20644;-78
2023/05/19 00:46:54;;;;;;;4.78;4.38;;;;;;;10.85;100.00;63116.56;5044003;28;20238;-77
2023/05/19 00:49:21;;;;;;;7.57;4.55;;;;;;;10.85;100.00;63114.00;5032821;28;20210;-77
2023/05/19 00:51:49;;;;;;;10.02;5.40;;;;;;;10.83;100.00;63115.00;5024775;28;20310;-74
2023/05/19 00:54:16;;;;;;;4.97;4.47;;;;;;;10.80;100.00;63108.84;5024697;28;20198;-76
2023/05/19 00:56:44;;;;;;;6.22;4.88;;;;;;;10.81;100.00;63115.47;5025051;28;20223;-76
2023/05/19 00:59:12;;;;;;;5.10;4.72;;;;;;;10.82;100.00;63113.47;5044355;28;20198;-77
2023/05/19 01:01:39;;;;;;;4.65;4.25;;;;;;;10.86;100.00;63117.59;5044160;28;20224;-77
2023/05/19 01:04:10;;;;;;;9.05;4.70;;;;;;;10.85;100.00;63116.56;5044279;28;20230;-76
2023/05/19 01:06:38;;;;;;;4.70;4.38;;;;;;;10.87;100.00;63121.69;5044122;28;20217;-76
2023/05/19 01:09:05;;;;;;;5.13;4.65;;;;;;;10.88;100.00;63119.66;5042903;28;20216;-77
2023/05/19 01:11:33;;;;;;;4.80;4.40;;;;;;;10.87;100.00;63118.63;5044227;28;20218;-76
2023/05/19 01:14:00;;;;;;;3.78;3.45;;;;;;;10.88;100.00;63120.19;5044292;28;20261;-77
2023/05/19 01:16:32;;;;;;;4.22;3.67;;;;;;;10.89;100.00;63126.31;5040802;28;20463;-76
2023/05/19 01:19:04;;;;;;;4.45;4.15;;;;;;;10.89;100.00;63121.22;5028774;28;20444;-77
2023/05/19 01:22:06;;;;;;;5.00;4.57;;;;;;;10.87;100.00;63126.78;5028997;28;20297;-77
2023/05/19 01:25:01;;;;;;;3.95;3.65;;;;;;;10.84;100.00;63120.59;5020412;28;20233;-76
2023/05/19 01:27:43;;;;;;;5.63;4.57;;;;;;;10.58;100.00;63086.06;5028097;28;20419;-76
2023/05/19 01:30:25;;;;;;;8.10;4.50;;;;;;;10.59;100.00;63090.16;5028430;28;20233;-77
2023/05/19 01:32:55;;;;;;;4.85;4.45;;;;;;;10.64;100.00;63089.72;5029121;28;20222;-77
2023/05/19 01:35:25;;;;;;;4.68;4.35;;;;;;;10.55;100.00;63083.47;5028810;28;20230;-76
2023/05/19 01:37:54;;;;;;;6.93;5.13;;;;;;;10.48;100.00;63084.38;5028268;28;20582;-76
2023/05/19 01:40:23;;;;;;;6.32;5.30;;;;;;;10.42;100.00;63070.53;5027636;28;20245;-77
2023/05/19 01:42:52;;;;;;;6.63;5.40;;;;;;;10.38;100.00;63068.44;5027806;28;20223;-77
2023/05/19 01:45:22;;;;;;;5.68;5.15;;;;;;;10.36;100.00;63066.34;5027869;28;20558;-77
2023/05/19 01:47:52;;;;;;;5.72;5.22;;;;;;;10.29;100.00;63056.56;5028154;28;20273;-76
2023/05/19 01:50:19;;;;;;;6.32;5.75;;;;;;;10.29;100.00;63059.09;5028283;28;20194;-77
2023/05/19 01:52:47;;;;;;;6.72;5.47;;;;;;;10.31;100.00;63061.72;5028016;28;20225;-77
2023/05/19 01:55:14;;;;;;;6.93;5.30;;;;;;;10.33;100.00;63063.25;5027450;28;20210;-77
2023/05/19 01:57:51;;;;;;;5.47;4.97;;;;;;;10.37;100.00;63062.81;5027749;28;20250;-76
2023/05/19 02:00:31;;;;;;;6.65;4.97;;;;;;;10.39;100.00;63072.00;5028039;28;20205;-76
2023/05/19 02:03:11;;;;;;;6.60;5.97;;;;;;;10.50;100.00;63083.38;5028134;28;20218;-77
2023/05/19 02:05:45;;;;;;;6.90;6.22;;;;;;;10.49;100.00;63085.41;5027619;28;20201;-78
2023/05/19 02:08:20;;;;;;;6.07;5.47;;;;;;;10.57;100.00;63090.13;5027805;28;20260;-77
2023/05/19 02:10:55;;;;;;;5.93;5.43;;;;;;;10.59;100.00;63087.63;5027836;28;20221;-76
2023/05/19 02:13:28;;;;;;;6.07;5.35;;;;;;;10.55;100.00;63083.47;5027737;28;20281;-76
2023/05/19 02:16:01;;;;;;;6.30;5.78;;;;;;;10.63;100.00;63094.28;5028096;28;20269;-77
2023/05/19 02:18:29;;;;;;;10.65;5.72;;;;;;;10.56;100.00;63081.97;5027387;28;20218;-77
2023/05/19 02:20:56;;;;;;;10.75;5.88;;;;;;;10.55;100.00;63082.94;5027836;28;20206;-77
2023/05/19 02:23:23;;;;;;;6.85;6.18;;;;;;;10.46;100.00;63074.69;5027407;28;20219;-76
2023/05/19 02:25:50;;;;;;;6.68;6.00;;;;;;;10.46;100.00;63079.78;5027695;28;20245;-76
2023/05/19 02:28:18;;;;;;;6.97;6.28;;;;;;;10.40;100.00;63070.50;5026860;28;20253;-77
2023/05/19 02:30:45;;;;;;;7.00;6.30;;;;;;;10.35;100.00;63065.84;5026565;28;20203;-76
2023/05/19 02:33:14;;;;;;;7.85;7.05;;;;;;;10.31;100.00;63061.72;5027002;28;20219;-76
2023/05/19 02:35:41;;;;;;;8.13;7.28;;;;;;;10.25;100.00;63052.44;5026789;28;20351;-77
2023/05/19 02:38:08;;;;;;;7.65;6.85;;;;;;;10.20;100.00;63052.34;5028250;28;20229;-76
2023/05/19 02:40:35;;;;;;;9.13;8.25;;;;;;;10.22;100.00;63051.88;5026829;28;20266;-77
2023/05/19 02:43:03;;;;;;;10.40;7.82;;;;;;;10.16;100.00;63048.72;5027061;28;20392;-77
2023/05/19 02:45:30;;;;;;;11.55;7.93;;;;;;;10.19;100.00;63053.84;5026804;28;20285;-76
2023/05/19 02:47:59;;;;;;;8.35;7.55;;;;;;;10.19;100.00;63046.22;5026342;28;20215;-77
2023/05/19 02:50:28;;;;;;;10.32;8.35;;;;;;;10.16;100.00;63045.66;5027218;28;20203;-75
2023/05/19 02:52:55;;;;;;;11.55;8.60;;;;;;;10.13;100.00;63045.13;5026436;28;20281;-76
2023/05/19 02:55:22;;;;;;;13.13;7.97;;;;;;;10.13;100.00;63037.47;5026928;28;20203;-76
2023/05/19 02:57:49;;;;;;;10.55;8.10;;;;;;;10.13;100.00;63042.56;5025947;28;20230;-77
2023/05/19 03:00:16;;;;;;;9.73;8.45;;;;;;;10.08;100.00;63039.91;5026613;28;20263;-76
2023/05/19 03:02:43;;;;;;;11.02;9.30;;;;;;;10.00;100.00;63029.09;5026293;28;20527;-76
2023/05/19 03:05:11;;;;;;;12.68;8.80;;;;;;;10.03;100.00;63032.19;5028129;28;20230;-76
2023/05/19 03:07:40;;;;;;;10.85;7.88;;;;;;;9.98;100.00;63027.53;5025784;28;20285;-77
2023/05/19 03:10:08;;;;;;;11.63;8.65;;;;;;;10.05;100.00;63034.78;5026039;28;20218;-76
2023/05/19 03:12:35;;;;;;;12.02;8.57;;;;;;;10.06;100.00;63038.34;5025770;28;20215;-76
2023/05/19 03:15:03;;;;;;;10.30;8.77;;;;;;;10.04;100.00;63036.28;5025851;28;20458;-76
2023/05/19 03:17:32;;;;;;;11.73;8.80;;;;;;;10.03;100.00;63032.19;5025426;28;20453;-77
2023/05/19 03:20:01;;;;;;;10.05;8.57;;;;;;;10.09;100.00;63038.94;5027373;28;20194;-76
2023/05/19 03:22:28;;;;;;;10.40;8.77;;;;;;;10.07;100.00;63033.78;5026036;28;20226;-76
2023/05/19 03:25:00;;;;;;;9.90;8.93;;;;;;;10.14;100.00;63046.66;5025536;28;20238;-78
2023/05/19 03:27:28;;;;;;;11.80;9.02;;;;;;;10.14;100.00;63041.56;5025295;28;20210;-77
2023/05/19 03:29:55;;;;;;;10.98;8.85;;;;;;;10.12;100.00;63044.59;5025772;28;20269;-77
2023/05/19 03:32:22;;;;;;;14.20;9.10;;;;;;;10.13;100.00;63042.56;5026310;28;20217;-76
2023/05/19 03:34:49;;;;;;;10.32;9.25;;;;;;;10.06;100.00;63037.84;5025079;28;20194;-76
2023/05/19 03:37:17;;;;;;;10.82;8.63;;;;;;;10.06;100.00;63037.84;5025902;28;20214;-76
2023/05/19 03:39:44;;;;;;;10.38;8.93;;;;;;;10.06;100.00;63035.81;5026074;28;20471;-77
2023/05/19 03:42:12;;;;;;;13.70;9.30;;;;;;;10.20;100.00;63050.31;5025496;28;20246;-76
2023/05/19 03:44:39;;;;;;;13.40;9.52;;;;;;;10.17;100.00;63049.75;5026794;28;20253;-77
2023/05/19 03:47:07;;;;;;;17.88;10.77;;;;;;;10.28;100.00;63061.16;5026716;28;20226;-76
2023/05/19 03:49:34;;;;;;;15.77;10.02;;;;;;;10.36;100.00;63064.34;5026608;28;20238;-78
2023/05/19 03:52:02;;;;;;;11.18;9.52;;;;;;;10.51;100.00;63079.31;5025931;28;20226;-76
2023/05/19 03:54:29;;;;;;;11.45;9.48;;;;;;;10.56;100.00;63087.03;5025781;28;20203;-76
2023/05/19 03:56:56;;;;;;;14.70;10.52;;;;;;;10.63;100.00;63096.34;5025866;28;20219;-77
2023/05/19 03:59:24;;;;;;;10.85;9.30;;;;;;;10.69;100.00;63103.06;5028628;28;20443;-77
2023/05/19 04:04:43;;;;;;;14.77;9.80;;;;;;;10.98;100.00;63127.47;5026433;28;20234;-79
2023/05/19 04:07:12;;;;;;;14.65;10.73;;;;;;;11.12;100.00;63150.13;5025810;28;20223;-77
2023/05/19 04:09:40;;;;;;;9.73;8.73;;;;;;;11.19;100.00;63152.28;5026708;28;20199;-77
2023/05/19 04:12:08;;;;;;;19.15;9.32;;;;;;;11.05;100.00;63137.25;5027065;28;20227;-75
2023/05/19 04:14:36;;;;;;;12.77;10.40;;;;;;;11.03;100.00;63135.72;5026240;28;20226;-77
2023/05/19 04:17:04;;;;;;;12.27;9.73;;;;;;;11.08;100.00;63145.97;5027112;28;20218;-77
2023/05/19 04:19:31;;;;;;;13.15;9.75;;;;;;;11.27;100.00;63158.00;5026221;28;20254;-77
2023/05/19 04:21:58;;;;;;;15.93;10.23;;;;;;;11.17;100.00;63152.22;5025306;28;20221;-77
2023/05/19 04:24:25;;;;;;;13.30;9.40;;;;;;;11.26;100.00;63159.53;5025318;28;20288;-76
2023/05/19 04:26:53;;;;;;;11.02;9.88;;;;;;;11.15;100.00;63147.59;5025579;28;20234;-77
2023/05/19 04:29:22;;;;;;;13.98;10.07;;;;;;;11.34;100.00;63164.75;5025367;28;20293;-77
2023/05/19 04:31:51;;;;;;;12.77;10.00;;;;;;;11.41;100.00;63182.72;5024870;28;20265;-79
2023/05/19 04:34:18;;;;;;;15.32;10.98;;;;;;;11.51;100.00;63185.41;5025193;28;20202;-77
2023/05/19 04:36:45;;;;;;;17.20;10.82;;;;;;;11.54;100.00;63185.47;5025892;28;20214;-76
2023/05/19 04:39:13;;;;;;;16.75;10.25;;;;;;;11.66;100.00;63202.50;5026389;28;20330;-78
2023/05/19 04:41:40;;;;;;;11.82;9.00;;;;;;;11.74;100.00;63201.09;5024934;28;20226;-78
2023/05/19 04:44:08;;;;;;;10.32;8.60;;;;;;;11.84;100.00;63216.06;5024800;28;20245;-77
2023/05/19 04:46:35;;;;;;;12.07;9.38;;;;;;;11.66;100.00;63195.38;5025233;28;20228;-78
2023/05/19 04:49:03;;;;;;;10.48;9.38;;;;;;;11.87;100.00;63216.59;5024446;28;20241;-75
2023/05/19 04:51:31;;;;;;;15.38;9.13;;;;;;;12.11;100.00;63247.09;5025418;28;20261;-78
2023/05/19 04:54:00;;;;;;;11.18;8.90;;;;;;;11.99;100.00;63236.69;5025307;28;20198;-77
2023/05/19 04:56:27;;;;;;;10.50;9.07;;;;;;;12.32;100.00;63270.91;5025492;28;20218;-76
2023/05/19 04:58:54;;;;;;;13.68;8.80;;;;;;;12.43;100.00;63280.25;5024941;28;20199;-76
2023/05/19 05:01:24;;;;;;;9.75;8.75;;;;;;;12.59;100.00;63296.88;5025210;28;20218;-77
2023/05/19 05:03:53;;;;;;;9.70;8.00;;;;;;;12.53;100.00;63293.19;5025721;28;20205;-78
2023/05/19 05:06:22;;;;;;;9.25;8.30;;;;;;;12.64;100.00;63301.53;5037445;28;20276;-77
2023/05/19 05:08:49;;;;;;;9.35;8.18;;;;;;;12.82;100.00;63319.66;5044081;28;20495;-77
2023/05/19 05:11:18;;;;;;;11.65;7.68;;;;;;;12.89;100.00;63326.94;5045470;28;20205;-78
2023/05/19 05:13:45;;;;;;;11.15;7.90;;;;;;;13.04;100.00;63345.59;5043208;28;20198;-77
2023/05/19 05:16:14;;;;;;;9.38;7.68;;;;;;;13.08;100.00;63346.66;5026642;28;20649;-77
2023/05/19 05:18:41;;;;;;;10.18;8.45;;;;;;;12.59;100.00;63296.34;5025153;28;20205;-77
2023/05/19 05:21:09;;;;;;;9.18;7.90;;;;;;;12.66;100.00;63306.69;5024384;28;20566;-78
2023/05/19 05:23:39;;;;;;;10.60;8.18;;;;;;;12.40;100.00;63276.63;5025280;28;20218;-78
2023/05/19 05:26:10;;;;;;;9.30;8.32;;;;;;;12.61;100.00;63300.97;5025217;28;20494;-78
2023/05/19 05:28:37;;;;;;;10.05;8.32;;;;;;;12.80;100.00;63318.13;5025754;28;20249;-79
2023/05/19 05:31:05;;;;;;;8.55;7.68;;;;;;;12.82;100.00;63322.75;5026308;28;20257;-78
2023/05/19 05:33:33;;;;;;;9.55;8.38;;;;;;;12.75;100.00;63318.53;5025686;28;20195;-78
2023/05/19 05:36:00;;;;;;;9.50;7.90;;;;;;;12.70;100.00;63312.84;5024829;28;20371;-79
2023/05/19 05:38:27;;;;;;;12.63;9.02;;;;;;;12.71;100.00;63311.34;5025303;28;20214;-77
2023/05/19 05:40:56;;;;;;;10.43;8.40;;;;;;;12.77;100.00;63312.97;5025392;28;20205;-77
2023/05/19 05:43:23;;;;;;;14.85;8.38;;;;;;;12.76;100.00;63314.47;5027656;28;20546;-78
2023/05/19 05:45:50;;;;;;;11.02;7.75;;;;;;;12.80;100.00;63318.13;5026301;28;20235;-79
2023/05/19 05:48:18;;;;;;;10.07;8.23;;;;;;;13.00;100.00;63333.75;5025544;28;20531;-78
2023/05/19 05:50:46;;;;;;;13.52;8.07;;;;;;;12.96;100.00;63331.63;5025635;28;20199;-78
2023/05/19 05:53:18;;;;;;;9.07;7.22;;;;;;;13.18;100.00;63355.00;5025441;28;20222;-79
2023/05/19 05:55:47;;;;;;;9.63;7.85;;;;;;;13.39;100.00;63384.44;5026712;28;20205;-78
2023/05/19 05:58:15;;;;;;;8.52;7.35;;;;;;;13.41;100.00;63380.88;5025834;28;20218;-77
2023/05/19 06:00:44;;;;;;;7.82;6.82;;;;;;;13.49;100.00;63391.75;5025451;28;20283;-78
2023/05/19 06:03:12;;;;;;;12.32;7.75;;;;;;;13.45;100.00;63385.56;5026726;28;20226;-78
2023/05/19 06:05:41;;;;;;;9.10;7.43;;;;;;;13.37;100.00;63374.72;5028507;28;20231;-78
2023/05/19 06:08:09;;;;;;;10.05;8.40;;;;;;;13.42;100.00;63385.00;5029566;28;20215;-78
2023/05/19 06:10:37;;;;;;;8.10;6.65;;;;;;;13.46;100.00;63389.16;5029914;28;20205;-78
2023/05/19 06:13:05;;;;;;;10.52;6.68;;;;;;;13.36;100.00;63375.69;5028997;28;20322;-79
2023/05/19 06:15:33;;;;;;;9.85;8.00;;;;;;;13.38;100.00;63377.78;5029255;28;20225;-78
2023/05/19 06:18:01;;;;;;;9.18;7.75;;;;;;;13.44;100.00;63384.50;5028350;28;20229;-78
2023/05/19 06:20:28;;;;;;;9.60;7.15;;;;;;;13.82;100.00;63423.44;5028540;28;20198;-79
2023/05/19 06:22:55;;;;;;;9.80;7.25;;;;;;;13.94;100.00;63433.34;5028073;28;20222;-78
2023/05/19 06:25:25;;;;;;;8.38;7.47;;;;;;;14.19;100.00;63461.31;5030662;28;20238;-80
2023/05/19 06:27:54;;;;;;;12.00;7.50;;;;;;;14.35;100.00;63477.97;5030124;28;20214;-79
2023/05/19 06:30:22;;;;;;;8.13;7.28;;;;;;;14.56;100.00;63499.78;5029153;28;20205;-79
2023/05/19 06:32:50;;;;;;;7.65;6.20;;;;;;;14.37;100.00;63482.59;5029253;28;20539;-78
2023/05/19 06:35:17;;;;;;;6.57;5.10;;;;;;;14.43;100.00;63483.69;5029682;28;20234;-80
2023/05/19 06:37:47;;;;;;;7.97;5.60;;;;;;;14.47;100.00;63490.94;5029698;28;20226;-79
2023/05/19 06:40:15;;;;;;;5.45;4.95;;;;;;;14.61;98.28;63508.06;5029034;28;20199;-80
2023/05/19 06:42:42;;;;;;;6.00;5.45;;;;;;;14.69;98.34;63508.16;5028049;28;20218;-78
2023/05/19 06:45:11;;;;;;;5.65;5.15;;;;;;;14.93;100.00;63541.28;5028480;28;20234;-79
2023/05/19 06:47:39;;;;;;;5.07;4.68;;;;;;;15.22;95.82;63570.38;5029326;28;20257;-81
2023/05/19 06:50:09;;;;;;;5.32;4.70;;;;;;;15.19;92.17;63567.25;5029275;28;20212;-78
2023/05/19 06:52:37;;;;;;;7.95;4.85;;;;;;;15.36;92.28;63584.94;5028282;28;20245;-78
2023/05/19 06:55:05;;;;;;;5.40;5.00;;;;;;;15.38;95.24;63589.56;5028600;28;20230;-80
2023/05/19 06:57:32;;;;;;;7.57;5.18;;;;;;;15.46;94.82;63598.44;5028415;28;20214;-78
2023/05/19 06:59:59;;;;;;;6.80;5.78;;;;;;;15.49;93.85;63601.56;5028941;28;20198;-80
2023/05/19 07:02:26;;;;;;;5.93;5.35;;;;;;;15.40;91.64;63587.06;5029376;28;20226;-79
2023/05/19 07:04:53;;;;;;;6.10;5.45;;;;;;;15.50;95.06;63599.50;5029042;28;20230;-78
2023/05/19 07:07:22;;;;;;;6.75;5.70;;;;;;;15.95;95.57;63646.81;5028617;28;20293;-79
2023/05/19 07:09:49;;;;;;;6.65;5.82;;;;;;;16.30;90.80;63679.59;5027746;28;20258;-78
2023/05/19 07:12:16;;;;;;;5.90;5.40;;;;;;;16.30;86.87;63679.59;5028613;28;20241;-78
2023/05/19 07:14:43;;;;;;;7.32;6.20;;;;;;;16.45;86.09;63698.28;5029599;28;20201;-79
2023/05/19 07:17:11;;;;;;;7.18;6.47;;;;;;;16.68;84.46;63722.25;5028810;28;20225;-79
2023/05/19 07:19:38;;;;;;;6.32;5.72;;;;;;;17.05;82.92;63760.25;5028832;28;20204;-79
2023/05/19 07:22:05;;;;;;;10.00;5.85;;;;;;;17.03;81.57;63758.16;5027604;28;20226;-79
2023/05/19 07:24:34;;;;;;;7.03;6.10;;;;;;;17.02;85.48;63755.06;5028013;28;20532;-79
2023/05/19 07:27:01;;;;;;;6.88;6.28;;;;;;;17.06;83.31;63761.28;5028992;28;20245;-80
2023/05/19 07:29:28;;;;;;;6.45;5.72;;;;;;;16.80;82.53;63734.22;5029419;28;20244;-80
2023/05/19 07:31:56;;;;;;;6.80;6.13;;;;;;;16.73;83.87;63724.88;5028350;28;20527;-81
2023/05/19 07:34:24;;;;;;;6.68;6.07;;;;;;;16.64;81.93;63717.56;5028481;28;20253;-80
2023/05/19 07:36:51;;;;;;;8.55;6.70;;;;;;;16.48;86.04;63698.84;5028217;28;20222;-79
2023/05/19 07:39:19;;;;;;;7.57;6.82;;;;;;;16.75;83.96;63726.97;5028724;28;20198;-80
2023/05/19 07:41:51;;;;;;;8.25;6.65;;;;;;;17.02;83.12;63757.63;5029485;28;20229;-80
2023/05/19 07:44:18;;;;;;;13.30;6.82;;;;;;;17.27;79.73;63778.00;5029491;28;20249;-79
2023/05/19 07:46:45;;;;;;;7.18;6.47;;;;;;;17.33;77.52;63786.78;5027605;28;20233;-80
2023/05/19 07:49:12;;;;;;;7.35;6.60;;;;;;;17.33;78.58;63787.31;5027620;28;20205;-79
2023/05/19 07:51:40;;;;;;;6.93;6.22;;;;;;;17.52;77.78;63806.06;5027557;28;20218;-79
2023/05/19 07:54:08;;;;;;;6.93;6.32;;;;;;;17.69;76.79;63823.78;5027810;28;20397;-78
2023/05/19 07:56:36;;;;;;;9.82;7.00;;;;;;;17.92;76.71;63855.47;5027622;28;20539;-79
2023/05/19 07:59:06;;;;;;;9.85;6.55;;;;;;;18.03;72.17;63862.28;5028586;28;20258;-78
2023/05/19 08:01:33;;;;;;;8.93;6.90;;;;;;;17.92;72.06;63845.69;5028578;28;20247;-80
2023/05/19 08:04:01;;;;;;;9.50;6.18;;;;;;;17.81;74.54;63841.44;5027568;28;20229;-80
2023/05/19 08:06:28;;;;;;;7.38;6.68;;;;;;;18.05;74.27;63861.78;5027132;28;20241;-78
2023/05/19 08:08:56;;;;;;;9.45;7.10;;;;;;;18.04;72.99;63857.66;5027132;28;20205;-79
2023/05/19 08:11:23;;;;;;;10.95;7.47;;;;;;;18.04;71.40;63863.34;5027705;28;20225;-78
2023/05/19 08:13:51;;;;;;;12.02;7.18;;;;;;;18.02;73.70;63863.31;5028703;28;20217;-78
2023/05/19 08:16:20;;;;;;;9.95;8.02;;;;;;;18.14;72.83;63870.66;5027569;28;20198;-79
2023/05/19 08:18:47;;;;;;;8.25;7.45;;;;;;;17.93;71.88;63848.78;5026920;28;20487;-81
2023/05/19 08:21:14;;;;;;;8.85;7.72;;;;;;;17.79;72.59;63831.63;5027575;28;20266;-79
2023/05/19 08:23:42;;;;;;;10.02;7.75;;;;;;;17.60;79.83;63814.91;5026762;28;20189;-79
2023/05/19 08:26:09;;;;;;;9.35;7.60;;;;;;;17.83;78.46;63838.88;5028120;28;20230;-79
2023/05/19 08:28:37;;;;;;;10.18;8.68;;;;;;;18.00;73.72;63858.66;5027629;28;20259;-79
2023/05/19 08:31:04;;;;;;;10.40;8.25;;;;;;;17.67;71.98;63822.22;5027112;28;20194;-80
2023/05/19 08:33:33;;;;;;;10.93;8.88;;;;;;;17.59;71.68;63813.88;5027059;28;20220;-79
2023/05/19 08:36:00;;;;;;;11.65;8.02;;;;;;;17.26;75.27;63779.50;5026271;28;20226;-78
2023/05/19 08:38:28;;;;;;;14.05;9.07;;;;;;;17.10;79.99;63768.53;5027298;28;20198;-80
2023/05/19 08:40:56;;;;;;;12.82;7.90;;;;;;;17.17;79.69;63768.09;5028356;28;20192;-80
2023/05/19 08:43:23;;;;;;;11.00;8.75;;;;;;;17.20;78.10;63773.78;5027093;28;20214;-80
2023/05/19 08:45:52;;;;;;;10.02;8.43;;;;;;;17.38;75.69;63792.00;5027031;28;20229;-78
2023/05/19 08:48:20;;;;;;;11.45;8.98;;;;;;;17.27;73.58;63783.66;5026818;28;20226;-79
2023/05/19 08:50:57;;;;;;;11.63;9.18;;;;;;;17.43;77.97;63797.22;5026390;28;20220;-79
2023/05/19 08:53:30;;;;;;;9.43;8.52;;;;;;;17.62;78.30;63813.94;5026802;28;20217;-79
2023/05/19 08:56:08;;;;;;;12.18;8.82;;;;;;;17.69;76.53;63826.38;5027162;28;20522;-79
2023/05/19 08:58:36;;;;;;;11.10;8.82;;;;;;;17.95;73.71;63853.44;5027074;28;20206;-80
2023/05/19 09:01:03;;;;;;;16.55;9.43;;;;;;;18.14;71.44;63870.66;5027081;28;20201;-80
2023/05/19 09:03:31;;;;;;;14.27;9.55;;;;;;;18.31;71.44;63888.88;5027490;28;20320;-79
2023/05/19 09:06:01;;;;;;;9.82;8.45;;;;;;;18.23;69.01;63880.03;5026674;28;20226;-79
2023/05/19 09:08:29;;;;;;;12.43;9.40;;;;;;;18.81;69.94;63942.56;5027113;28;20265;-80
2023/05/19 09:10:56;;;;;;;12.07;9.05;;;;;;;19.13;71.53;63976.44;5028279;28;20290;-80
2023/05/19 09:13:24;;;;;;;14.00;9.20;;;;;;;19.23;65.66;63984.28;5026620;28;20254;-79
2023/05/19 09:15:53;;;;;;;12.63;9.82;;;;;;;19.52;69.10;64014.53;5026591;28;20203;-80
2023/05/19 09:18:21;;;;;;;13.00;9.75;;;;;;;19.70;64.39;64037.44;5027248;28;20229;-79
2023/05/19 09:20:52;;;;;;;14.77;9.98;;;;;;;19.68;61.02;64030.16;5026960;28;20198;-78
2023/05/19 09:23:21;;;;;;;12.75;9.77;;;;;;;19.41;63.23;64005.13;5029546;28;20214;-79
2023/05/19 09:25:49;;;;;;;12.63;9.60;;;;;;;19.38;60.89;64001.97;5047354;28;20256;-80
2023/05/19 09:28:24;;;;;;;13.02;9.82;;;;;;;19.42;62.91;64003.56;5045693;28;20280;-79
2023/05/19 09:31:00;;;;;;;12.90;9.85;;;;;;;19.20;59.38;63980.63;5045781;28;20517;-79
2023/05/19 09:33:29;;;;;;;15.15;9.40;;;;;;;19.04;61.10;63969.63;5045107;28;20201;-79
2023/05/19 09:35:56;;;;;;;15.40;9.52;;;;;;;19.04;65.53;63964.47;5046650;28;20259;-79
2023/05/19 09:38:26;;;;;;;17.45;9.88;;;;;;;19.27;63.63;63987.91;5050918;28;20221;-79
2023/05/19 09:40:56;;;;;;;13.90;8.95;;;;;;;19.22;63.37;63985.81;5050219;28;20416;-81
2023/05/19 09:43:23;;;;;;;12.02;9.63;;;;;;;19.34;63.16;63992.66;5049371;28;20221;-80
2023/05/19 09:45:58;;;;;;;15.77;9.20;;;;;;;19.29;63.71;63990.00;5049537;28;20244;-80
2023/05/19 09:48:26;;;;;;;13.23;9.55;;;;;;;19.08;64.48;63968.13;5049803;28;20252;-79
2023/05/19 09:50:56;;;;;;;11.20;8.75;;;;;;;19.23;66.55;63986.31;5050846;28;20201;-80
2023/05/19 09:53:24;;;;;;;11.85;8.90;;;;;;;19.27;61.73;63993.09;5050357;28;20542;-80
2023/05/19 09:55:57;;;;;;;10.43;9.05;;;;;;;19.46;62.45;64007.75;5050209;28;20205;-79
2023/05/19 09:58:25;;;;;;;10.15;8.95;;;;;;;19.40;62.22;64002.03;5049838;28;20260;-80
2023/05/19 10:00:54;;;;;;;12.40;8.68;;;;;;;19.21;60.74;63979.06;5048598;28;20264;-79
2023/05/19 10:03:23;;;;;;;14.50;9.52;;;;;;;19.19;62.06;63982.69;5050598;28;20565;-79
2023/05/19 10:05:51;;;;;;;11.45;9.27;;;;;;;18.98;58.61;63960.28;5050829;28;20249;-79
2023/05/19 10:08:18;;;;;;;10.65;8.52;;;;;;;19.19;59.12;63982.69;5051692;28;20209;-80
2023/05/19 10:10:47;;;;;;;12.05;8.80;;;;;;;19.42;62.29;64006.16;5049900;28;20197;-79
2023/05/19 10:13:16;;;;;;;12.10;9.27;;;;;;;19.48;58.71;64012.94;5049419;28;20224;-80
2023/05/19 10:15:45;;;;;;;9.32;8.43;;;;;;;19.65;57.76;64029.63;5049819;28;20382;-79
2023/05/19 10:18:14;;;;;;;10.52;8.77;;;;;;;19.69;60.48;64033.81;5049655;28;20541;-79
2023/05/19 10:20:42;;;;;;;11.73;9.13;;;;;;;19.62;60.27;64026.50;5050591;28;20309;-80
2023/05/19 10:23:09;;;;;;;11.20;9.20;;;;;;;19.76;59.51;64041.13;5049036;28;20217;-79
2023/05/19 10:25:38;;;;;;;9.88;8.88;;;;;;;19.61;59.08;64028.56;5049386;28;20393;-80
2023/05/19 10:28:09;;;;;;;9.00;8.10;;;;;;;19.92;60.93;64057.78;5049705;28;20221;-79
2023/05/19 10:30:41;;;;;;;9.70;8.00;;;;;;;20.06;57.24;64067.22;5051703;28;20186;-80
2023/05/19 10:33:15;;;;;;;14.63;8.60;;;;;;;20.07;55.76;64073.44;5052378;28;20251;-79
2023/05/19 10:36:16;;;;;;;9.55;8.23;;;;;;;20.49;55.23;64114.69;5050095;28;20277;-79
2023/05/19 10:38:52;;;;;;;12.57;8.70;;;;;;;20.61;52.88;64127.22;5050990;28;20194;-79
2023/05/19 10:41:28;;;;;;;10.88;8.80;;;;;;;20.23;55.92;64087.56;5049357;28;20209;-79
2023/05/19 10:44:07;;;;;;;9.57;8.63;;;;;;;20.55;55.89;64121.47;5050520;28;20196;-81
2023/05/19 10:46:35;;;;;;;10.15;8.65;;;;;;;20.66;54.31;64135.03;5048604;28;20244;-79
2023/05/19 10:49:03;;;;;;;11.10;8.30;;;;;;;21.07;55.58;64179.94;5049870;28;20193;-80
2023/05/19 10:51:32;;;;;;;10.30;8.70;;;;;;;21.71;52.73;64247.31;5049924;28;20225;-79
2023/05/19 10:54:01;;;;;;;10.95;8.38;;;;;;;22.04;52.00;64276.09;5048976;28;20201;-80
2023/05/19 10:56:33;;;;;;;10.88;8.52;;;;;;;21.83;49.60;64256.75;5049699;28;20218;-80
2023/05/19 10:59:01;;;;;;;12.25;8.85;;;;;;;21.85;51.16;64255.72;5050423;28;20203;-80
2023/05/19 11:01:33;;;;;;;10.82;7.43;;;;;;;21.85;51.91;64258.84;5050776;28;20244;-80
2023/05/19 11:04:09;;;;;;;9.00;8.10;;;;;;;21.94;52.48;64268.25;5050471;28;20256;-81
2023/05/19 11:06:37;;;;;;;11.35;7.88;;;;;;;22.07;48.59;64278.72;5048498;28;20299;-80
2023/05/19 11:09:12;;;;;;;9.85;7.68;;;;;;;21.97;50.12;64271.38;5049647;28;20205;-80
2023/05/19 11:11:47;;;;;;;8.98;8.07;;;;;;;21.84;49.14;64259.84;5049485;28;20209;-80
2023/05/19 11:14:16;;;;;;;8.57;7.68;;;;;;;21.87;48.40;64263.00;5050943;28;20221;-79
2023/05/19 11:16:47;;;;;;;11.68;8.05;;;;;;;21.50;50.63;64225.34;5050959;28;20288;-80
2023/05/19 11:19:20;;;;;;;10.93;8.25;;;;;;;21.98;54.19;64272.44;5050118;28;20268;-81
2023/05/19 11:21:49;;;;;;;7.75;7.10;;;;;;;22.39;54.27;64314.75;5050306;28;20455;-80
2023/05/19 11:24:34;;;;;;;9.32;8.27;;;;;;;22.26;46.09;64296.47;5050119;28;20197;-80
2023/05/19 11:27:19;;;;;;;7.43;6.75;;;;;;;22.79;44.22;64351.91;5048331;28;20237;-80
2023/05/19 11:29:48;;;;;;;9.18;7.32;;;;;;;23.05;42.49;64383.78;5051082;28;20227;-80
2023/05/19 11:32:22;;;;;;;10.52;7.18;;;;;;;23.25;41.67;64404.69;5048824;28;20296;-79
2023/05/19 11:34:51;;;;;;;9.43;7.43;;;;;;;23.05;44.81;64381.19;5049749;28;20194;-80